createdAt,value
2023-03-08T00:01:22.797Z,3.40
2023-03-08T00:03:54.834Z,3.15
2023-03-08T00:06:22.831Z,2.90
2023-03-08T00:08:49.688Z,3.25
2023-03-08T00:11:17.261Z,4.97
2023-03-08T00:13:44.315Z,2.92
2023-03-08T00:16:13.866Z,3.95
2023-03-08T00:18:40.655Z,6.30
2023-03-08T00:23:54.694Z,3.28
2023-03-08T00:26:22.524Z,3.90
2023-03-08T00:28:49.105Z,3.22
2023-03-08T00:31:16.106Z,3.25
2023-03-08T00:33:42.801Z,3.70
2023-03-08T00:36:23.290Z,3.22
2023-03-08T00:38:51.466Z,4.05
2023-03-08T00:41:18.701Z,4.32
2023-03-08T00:43:45.984Z,4.18
2023-03-08T00:46:13.239Z,5.13
2023-03-08T00:48:40.443Z,6.30
2023-03-08T00:51:08.179Z,5.50
2023-03-08T00:53:37.507Z,4.03
2023-03-08T00:56:07.447Z,3.90
2023-03-08T00:58:35.160Z,5.18
2023-03-08T01:01:02.796Z,4.72
2023-03-08T01:03:30.469Z,4.57
2023-03-08T01:05:58.928Z,5.43
2023-03-08T01:08:29.948Z,3.22
2023-03-08T01:10:59.649Z,5.38
2023-03-08T01:13:29.687Z,5.45
2023-03-08T01:15:57.697Z,4.15
2023-03-08T01:18:29.134Z,4.47
2023-03-08T01:21:04.605Z,4.68
2023-03-08T01:23:34.348Z,4.88
2023-03-08T01:26:10.357Z,5.10
2023-03-08T01:28:37.846Z,4.88
2023-03-08T01:31:15.308Z,5.82
2023-03-08T01:33:47.852Z,6.38
2023-03-08T01:36:17.038Z,5.22
2023-03-08T01:38:44.878Z,5.72
2023-03-08T01:41:32.426Z,4.40
2023-03-08T01:43:59.692Z,5.63
2023-03-08T01:46:32.369Z,3.75
2023-03-08T01:49:05.283Z,4.97
2023-03-08T01:51:52.208Z,5.45
2023-03-08T01:54:49.424Z,5.47
2023-03-08T01:57:25.106Z,3.90
2023-03-08T01:59:56.820Z,3.83
2023-03-08T02:02:28.618Z,5.75
2023-03-08T02:04:56.197Z,4.68
2023-03-08T02:07:23.319Z,6.20
2023-03-08T02:09:52.705Z,5.30
2023-03-08T02:12:29.172Z,5.35
2023-03-08T02:14:56.471Z,4.97
2023-03-08T02:17:23.759Z,4.82
2023-03-08T02:19:50.126Z,5.75
2023-03-08T02:22:17.653Z,5.53
2023-03-08T02:24:44.225Z,5.22
2023-03-08T02:27:18.553Z,6.10
2023-03-08T02:29:45.000Z,4.80
2023-03-08T02:32:11.500Z,5.93
2023-03-08T02:34:38.251Z,4.88
2023-03-08T02:37:05.214Z,5.97
2023-03-08T02:39:31.671Z,5.15
2023-03-08T02:41:58.183Z,6.15
2023-03-08T02:44:24.858Z,6.22
2023-03-08T02:46:52.459Z,6.93
2023-03-08T02:49:18.939Z,4.22
2023-03-08T02:51:45.390Z,7.15
2023-03-08T02:54:11.929Z,4.20
2023-03-08T02:56:38.454Z,6.32
2023-03-08T02:59:05.605Z,5.25
2023-03-08T03:01:32.224Z,7.00
2023-03-08T03:03:59.151Z,4.25
2023-03-08T03:06:25.716Z,5.57
2023-03-08T03:08:52.301Z,5.75
2023-03-08T03:11:21.972Z,4.55
2023-03-08T03:13:57.555Z,4.68
2023-03-08T03:16:24.961Z,4.80
2023-03-08T03:18:53.782Z,6.95
2023-03-08T03:21:20.805Z,4.55
2023-03-08T03:23:47.539Z,4.80
2023-03-08T03:26:17.284Z,5.43
2023-03-08T03:28:44.089Z,5.43
2023-03-08T03:31:13.434Z,5.00
2023-03-08T03:33:41.970Z,4.45
2023-03-08T03:36:11.984Z,5.03
2023-03-08T03:38:38.651Z,4.38
2023-03-08T03:41:07.487Z,6.15
2023-03-08T03:43:34.477Z,8.25
2023-03-08T03:46:03.138Z,5.72
2023-03-08T03:48:30.742Z,5.13
2023-03-08T03:51:14.295Z,5.40
2023-03-08T03:53:41.431Z,6.20
2023-03-08T03:56:13.002Z,7.07
2023-03-08T03:58:39.874Z,6.63
2023-03-08T04:01:15.739Z,6.47
2023-03-08T04:03:47.357Z,6.03
2023-03-08T04:06:20.403Z,6.35
2023-03-08T04:08:47.558Z,5.32
2023-03-08T04:11:20.375Z,7.03
2023-03-08T04:13:47.292Z,7.18
2023-03-08T04:16:21.426Z,7.28
2023-03-08T04:18:48.850Z,5.75
2023-03-08T04:21:15.400Z,7.40
2023-03-08T04:23:41.907Z,7.82
2023-03-08T04:26:08.504Z,5.78
2023-03-08T04:28:35.032Z,5.40
2023-03-08T04:31:14.106Z,6.97
2023-03-08T04:33:41.031Z,10.73
2023-03-08T04:36:08.309Z,6.45
2023-03-08T04:38:35.294Z,5.75
2023-03-08T04:41:02.227Z,5.80
2023-03-08T04:43:29.904Z,5.75
2023-03-08T04:45:56.348Z,5.60
2023-03-08T04:48:24.792Z,5.15
2023-03-08T04:50:58.314Z,5.50
2023-03-08T04:53:26.182Z,7.63
2023-03-08T04:55:53.554Z,8.38
2023-03-08T04:58:21.325Z,6.53
2023-03-08T05:00:48.011Z,6.50
2023-03-08T05:03:15.054Z,5.38
2023-03-08T05:05:50.812Z,4.63
2023-03-08T05:08:17.815Z,9.52
2023-03-08T05:10:55.181Z,5.43
2023-03-08T05:13:22.176Z,5.57
2023-03-08T05:15:48.624Z,12.60
2023-03-08T05:18:15.554Z,5.78
2023-03-08T05:20:42.017Z,4.55
2023-03-08T05:23:08.531Z,6.75
2023-03-08T05:25:35.883Z,7.00
2023-03-08T05:28:02.433Z,6.47
2023-03-08T05:30:28.951Z,3.28
2023-03-08T05:32:55.636Z,7.40
2023-03-08T05:35:22.074Z,7.30
2023-03-08T05:37:48.545Z,8.52
2023-03-08T05:40:15.029Z,6.70
2023-03-08T05:42:41.677Z,7.43
2023-03-08T05:45:08.963Z,6.43
2023-03-08T05:47:35.562Z,7.35
2023-03-08T05:50:02.232Z,7.60
2023-03-08T05:52:31.278Z,5.05
2023-03-08T05:55:05.730Z,6.40
2023-03-08T05:57:32.187Z,7.47
2023-03-08T05:59:58.682Z,6.07
2023-03-08T06:02:25.153Z,6.57
2023-03-08T06:04:51.611Z,6.38
2023-03-08T06:07:18.272Z,7.28
2023-03-08T06:09:44.732Z,4.50
2023-03-08T06:12:11.203Z,8.13
2023-03-08T06:14:37.734Z,9.20
2023-03-08T06:17:04.405Z,5.45
2023-03-08T06:19:34.172Z,5.03
2023-03-08T06:22:00.604Z,4.95
2023-03-08T06:24:27.062Z,4.88
2023-03-08T06:26:55.601Z,4.93
2023-03-08T06:29:25.488Z,7.22
2023-03-08T06:31:51.959Z,4.78
2023-03-08T06:34:18.535Z,3.53
2023-03-08T06:36:45.207Z,4.30
2023-03-08T06:39:11.695Z,5.28
2023-03-08T06:41:38.245Z,5.38
2023-03-08T06:44:04.758Z,4.80
2023-03-08T06:46:31.218Z,4.72
2023-03-08T06:48:59.784Z,4.05
2023-03-08T06:51:26.326Z,7.20
2023-03-08T06:53:52.849Z,6.95
2023-03-08T06:56:19.385Z,6.95
2023-03-08T06:58:45.896Z,5.45
2023-03-08T07:01:17.165Z,5.25
2023-03-08T07:03:45.364Z,9.52
2023-03-08T07:06:15.135Z,6.07
2023-03-08T07:08:41.746Z,6.55
2023-03-08T07:11:11.460Z,5.13
2023-03-08T07:13:38.780Z,6.63
2023-03-08T07:16:10.057Z,5.72
2023-03-08T07:18:37.267Z,6.18
2023-03-08T07:21:04.518Z,4.78
2023-03-08T07:23:31.055Z,4.00
2023-03-08T07:25:57.601Z,4.38
2023-03-08T07:28:24.205Z,4.43
2023-03-08T07:30:53.276Z,5.65
2023-03-08T07:33:20.793Z,5.93
2023-03-08T07:35:47.305Z,6.75
2023-03-08T07:38:14.714Z,4.90
2023-03-08T07:40:41.508Z,6.50
2023-03-08T07:43:08.192Z,5.32
2023-03-08T07:45:34.969Z,5.10
2023-03-08T07:48:01.405Z,6.22
2023-03-08T07:50:28.104Z,5.78
2023-03-08T07:52:54.558Z,6.47
2023-03-08T07:55:27.643Z,7.50
2023-03-08T07:57:54.173Z,5.63
2023-03-08T08:00:23.624Z,6.70
2023-03-08T08:02:52.060Z,6.65
2023-03-08T08:05:18.633Z,6.95
2023-03-08T08:07:47.421Z,4.97
2023-03-08T08:10:14.458Z,4.95
2023-03-08T08:12:40.959Z,4.93
2023-03-08T08:15:07.708Z,5.40
2023-03-08T08:20:02.040Z,5.90
2023-03-08T08:22:31.907Z,9.05
2023-03-08T08:24:58.455Z,7.30
2023-03-08T08:27:25.073Z,5.20
2023-03-08T08:29:51.757Z,5.88
2023-03-08T08:32:18.803Z,5.22
2023-03-08T08:34:45.487Z,4.57
2023-03-08T08:37:11.999Z,5.50
2023-03-08T08:39:38.918Z,3.58
2023-03-08T08:42:05.611Z,5.80
2023-03-08T08:44:33.732Z,6.15
2023-03-08T08:47:01.538Z,6.15
2023-03-08T08:49:28.213Z,10.63
2023-03-08T08:51:54.816Z,5.35
2023-03-08T08:54:22.319Z,6.07
2023-03-08T08:56:48.825Z,5.55
2023-03-08T08:59:17.491Z,7.68
2023-03-08T09:01:47.693Z,6.43
2023-03-08T09:04:16.937Z,3.92
2023-03-08T09:06:44.592Z,5.18
2023-03-08T09:09:11.657Z,3.40
2023-03-08T09:11:52.165Z,3.47
2023-03-08T09:14:20.730Z,4.43
2023-03-08T09:16:49.158Z,5.28
2023-03-08T09:19:17.670Z,4.97
2023-03-08T09:21:44.435Z,5.22
2023-03-08T09:24:11.873Z,3.55
2023-03-08T09:26:38.946Z,5.57
2023-03-08T09:29:08.188Z,6.03
2023-03-08T09:31:37.715Z,7.90
2023-03-08T09:34:08.842Z,5.75
2023-03-08T09:36:37.347Z,5.55
2023-03-08T09:39:05.889Z,6.13
2023-03-08T09:41:44.697Z,5.43
2023-03-08T09:44:32.651Z,3.42
2023-03-08T09:47:16.386Z,4.07
2023-03-08T09:49:47.739Z,3.85
2023-03-08T09:52:30.021Z,4.15
2023-03-08T09:54:59.208Z,5.05
2023-03-08T09:57:30.951Z,3.22
2023-03-08T10:00:00.657Z,3.80
2023-03-08T10:02:39.270Z,3.75
2023-03-08T10:05:34.516Z,5.72
2023-03-08T10:08:09.151Z,4.47
2023-03-08T10:10:41.761Z,4.28
2023-03-08T10:13:38.883Z,6.28
2023-03-08T10:16:20.924Z,5.82
2023-03-08T10:18:52.834Z,4.70
2023-03-08T10:21:23.546Z,4.55
2023-03-08T10:24:13.278Z,4.32
2023-03-08T10:26:41.898Z,6.60
2023-03-08T10:29:13.674Z,5.10
2023-03-08T10:31:43.580Z,5.60
2023-03-08T10:34:14.396Z,5.18
2023-03-08T10:37:10.461Z,5.38
2023-03-08T10:39:47.548Z,8.27
2023-03-08T10:42:16.839Z,6.03
2023-03-08T10:45:22.166Z,4.70
2023-03-08T10:48:02.499Z,4.75
2023-03-08T10:50:31.413Z,5.65
2023-03-08T10:53:17.949Z,4.90
2023-03-08T10:55:50.114Z,5.13
2023-03-08T10:58:32.257Z,5.03
2023-03-08T11:01:05.518Z,5.82
2023-03-08T11:03:32.657Z,6.90
2023-03-08T11:06:25.895Z,7.07
2023-03-08T11:08:59.958Z,6.13
2023-03-08T11:11:27.534Z,6.95
2023-03-08T11:13:55.506Z,6.55
2023-03-08T11:17:00.492Z,10.93
2023-03-08T11:19:49.386Z,7.45
2023-03-08T11:22:16.076Z,8.00
2023-03-08T11:25:01.198Z,8.43
2023-03-08T11:27:43.130Z,7.50
2023-03-08T11:30:27.610Z,6.63
2023-03-08T11:33:00.458Z,8.07
2023-03-08T11:36:01.901Z,6.57
2023-03-08T11:38:30.731Z,6.63
2023-03-08T11:41:35.633Z,7.13
2023-03-08T11:44:20.215Z,8.07
2023-03-08T11:47:05.283Z,7.75
2023-03-08T11:50:09.653Z,8.95
2023-03-08T11:53:12.145Z,9.98
2023-03-08T11:55:50.779Z,9.60
2023-03-08T11:58:22.559Z,9.20
2023-03-08T12:00:53.532Z,9.07
2023-03-08T12:03:25.205Z,10.43
2023-03-08T12:06:03.587Z,11.13
2023-03-08T12:08:37.085Z,9.93
2023-03-08T12:11:24.859Z,10.48
2023-03-08T12:14:18.206Z,10.25
2023-03-08T12:16:59.385Z,7.47
2023-03-08T12:19:46.553Z,7.50
2023-03-08T12:22:31.096Z,8.73
2023-03-08T12:25:19.752Z,9.65
2023-03-08T12:28:35.404Z,8.23
2023-03-08T12:31:29.523Z,9.27
2023-03-08T12:33:58.196Z,7.53
2023-03-08T12:36:54.762Z,8.80
2023-03-08T12:39:32.270Z,8.50
2023-03-08T12:42:10.856Z,9.95
2023-03-08T12:44:40.087Z,9.48
2023-03-08T12:47:23.213Z,8.55
2023-03-08T12:49:55.194Z,9.65
2023-03-08T12:52:21.849Z,10.82
2023-03-08T12:54:59.344Z,10.60
2023-03-08T12:57:50.331Z,10.30
2023-03-08T13:00:19.901Z,10.15
2023-03-08T13:02:46.757Z,10.88
2023-03-08T13:05:31.056Z,10.15
2023-03-08T13:08:20.782Z,9.07
2023-03-08T13:10:50.411Z,8.43
2023-03-08T13:13:39.161Z,9.90
2023-03-08T13:16:24.988Z,8.25
2023-03-08T13:19:03.411Z,11.32
2023-03-08T13:21:36.939Z,10.52
2023-03-08T13:24:39.379Z,11.82
2023-03-08T13:27:38.862Z,12.98
2023-03-08T13:30:42.710Z,9.80
2023-03-08T13:33:14.666Z,14.30
2023-03-08T13:35:41.272Z,11.50
2023-03-08T13:38:07.926Z,11.48
2023-03-08T13:40:35.707Z,10.93
2023-03-08T13:43:10.953Z,10.00
2023-03-08T13:45:37.814Z,9.68
2023-03-08T13:48:08.827Z,10.23
2023-03-08T13:50:38.643Z,16.48
2023-03-08T13:53:10.310Z,8.65
2023-03-08T13:55:44.393Z,8.90
2023-03-08T13:58:31.009Z,9.75
2023-03-08T14:01:02.472Z,10.60
2023-03-08T14:03:31.202Z,10.27
2023-03-08T14:05:58.634Z,9.35
2023-03-08T14:08:30.555Z,8.27
2023-03-08T14:11:03.096Z,11.00
2023-03-08T14:13:36.185Z,12.43
2023-03-08T14:16:08.344Z,10.63
2023-03-08T14:18:37.906Z,9.30
2023-03-08T14:23:59.683Z,11.93
2023-03-08T14:26:56.295Z,10.65
2023-03-08T14:29:29.771Z,10.60
2023-03-08T14:31:56.623Z,11.10
2023-03-08T14:34:26.951Z,10.25
2023-03-08T14:36:58.193Z,13.15
2023-03-08T14:39:27.478Z,13.52
2023-03-08T14:41:55.260Z,14.85
2023-03-08T14:44:30.812Z,12.77
2023-03-08T14:47:08.630Z,12.95
2023-03-08T14:49:35.185Z,13.32
2023-03-08T14:52:02.947Z,12.20
2023-03-08T14:54:36.687Z,12.75
2023-03-08T14:57:23.188Z,13.20
2023-03-08T14:59:50.319Z,12.38
2023-03-08T15:02:19.072Z,13.85
2023-03-08T15:04:46.412Z,15.80
2023-03-08T15:07:24.017Z,14.68
2023-03-08T15:09:52.089Z,14.90
2023-03-08T15:12:18.635Z,19.63
2023-03-08T15:14:48.716Z,14.63
2023-03-08T15:17:16.325Z,13.13
2023-03-08T15:19:43.287Z,15.93
2023-03-08T15:22:13.867Z,14.55
2023-03-08T15:24:40.607Z,14.75
2023-03-08T15:27:09.741Z,10.90
2023-03-08T15:29:39.167Z,14.18
2023-03-08T15:32:07.002Z,15.88
2023-03-08T15:34:33.880Z,15.48
2023-03-08T15:37:00.494Z,14.23
2023-03-08T15:39:27.178Z,13.75
2023-03-08T15:41:54.028Z,13.48
2023-03-08T15:44:21.244Z,13.68
2023-03-08T15:46:47.879Z,11.52
2023-03-08T15:49:14.584Z,16.95
2023-03-08T15:51:43.376Z,11.10
2023-03-08T15:54:12.977Z,12.55
2023-03-08T15:56:39.605Z,14.32
2023-03-08T15:59:06.219Z,11.48
2023-03-08T16:01:33.693Z,10.43
2023-03-08T16:04:00.394Z,10.15
2023-03-08T16:06:27.229Z,10.18
2023-03-08T16:08:54.639Z,12.45
2023-03-08T16:11:22.474Z,12.15
2023-03-08T16:13:52.854Z,11.00
2023-03-08T16:16:20.813Z,10.30
2023-03-08T16:18:48.570Z,9.52
2023-03-08T16:21:15.665Z,10.75
2023-03-08T16:23:42.822Z,9.82
2023-03-08T16:26:16.186Z,8.80
2023-03-08T16:28:45.017Z,8.52
2023-03-08T16:31:12.773Z,9.73
2023-03-08T16:33:40.023Z,8.98
2023-03-08T16:36:06.823Z,7.80
2023-03-08T16:38:33.284Z,9.13
2023-03-08T16:41:12.346Z,10.50
2023-03-08T16:43:46.479Z,9.80
2023-03-08T16:46:19.223Z,9.15
2023-03-08T16:48:49.248Z,10.20
2023-03-08T16:51:18.039Z,10.02
2023-03-08T16:53:44.745Z,8.82
2023-03-08T16:56:19.551Z,9.07
2023-03-08T16:58:46.051Z,10.30
2023-03-08T17:01:14.785Z,8.15
2023-03-08T17:03:41.552Z,12.88
2023-03-08T17:06:14.295Z,7.97
2023-03-08T17:08:41.176Z,9.53
2023-03-08T17:11:15.365Z,9.57
2023-03-08T17:13:42.123Z,10.60
2023-03-08T17:16:11.779Z,10.57
2023-03-08T17:18:39.223Z,11.77
2023-03-08T17:21:08.291Z,8.43
2023-03-08T17:23:35.704Z,9.23
2023-03-08T17:26:09.892Z,10.02
2023-03-08T17:28:36.716Z,12.32
2023-03-08T17:31:14.908Z,10.73
2023-03-08T17:33:42.874Z,10.63
2023-03-08T17:36:12.537Z,11.88
2023-03-08T17:38:39.258Z,12.23
2023-03-08T17:41:14.389Z,10.95
2023-03-08T17:43:41.445Z,12.80
2023-03-08T17:46:17.447Z,11.38
2023-03-08T17:48:45.142Z,10.95
2023-03-08T17:51:16.344Z,16.83
2023-03-08T17:53:43.648Z,14.75
2023-03-08T17:56:20.016Z,16.08
2023-03-08T17:58:46.848Z,12.80
2023-03-08T18:01:17.051Z,13.05
2023-03-08T18:03:44.241Z,11.50
2023-03-08T18:06:35.931Z,9.70
2023-03-08T18:09:07.531Z,8.10
2023-03-08T18:11:37.568Z,9.23
2023-03-08T18:14:06.884Z,10.50
2023-03-08T18:16:34.232Z,13.35
2023-03-08T18:19:02.462Z,13.82
2023-03-08T18:21:30.959Z,17.35
2023-03-08T18:23:57.626Z,13.25
2023-03-08T18:26:24.675Z,17.02
2023-03-08T18:28:51.347Z,18.70
2023-03-08T18:31:23.164Z,18.20
2023-03-08T18:33:54.477Z,17.27
2023-03-08T18:36:23.926Z,14.38
2023-03-08T18:38:50.856Z,13.10
2023-03-08T18:41:18.949Z,12.25
2023-03-08T18:43:46.802Z,13.85
2023-03-08T18:46:14.500Z,12.57
2023-03-08T18:48:43.354Z,12.77
2023-03-08T18:51:09.834Z,18.70
2023-03-08T18:53:37.188Z,14.02
2023-03-08T18:56:04.778Z,14.38
2023-03-08T18:58:32.776Z,14.10
2023-03-08T19:01:02.790Z,11.30
2023-03-08T19:03:30.555Z,11.98
2023-03-08T19:06:00.931Z,13.07
2023-03-08T19:08:28.304Z,13.18
2023-03-08T19:10:54.815Z,12.57
2023-03-08T19:13:21.287Z,14.68
2023-03-08T19:15:47.802Z,14.07
2023-03-08T19:18:14.627Z,11.65
2023-03-08T19:20:42.973Z,11.80
2023-03-08T19:23:10.295Z,14.00
2023-03-08T19:25:57.232Z,12.13
2023-03-08T19:28:23.861Z,14.02
2023-03-08T19:30:50.468Z,13.15
2023-03-08T19:33:29.640Z,12.32
2023-03-08T19:35:57.248Z,11.30
2023-03-08T19:38:23.901Z,12.00
2023-03-08T19:40:50.412Z,11.10
2023-03-08T19:43:16.913Z,12.75
2023-03-08T19:45:52.573Z,12.80
2023-03-08T19:48:19.026Z,9.73
2023-03-08T19:50:46.029Z,11.73
2023-03-08T19:53:12.506Z,12.27
2023-03-08T19:55:48.281Z,11.20
2023-03-08T19:58:14.761Z,16.15
2023-03-08T20:00:44.063Z,11.38
2023-03-08T20:03:12.152Z,10.52
2023-03-08T20:05:47.219Z,11.63
2023-03-08T20:08:14.314Z,11.88
2023-03-08T20:10:40.969Z,11.23
2023-03-08T20:13:07.775Z,10.05
2023-03-08T20:15:34.639Z,11.90
2023-03-08T20:18:01.054Z,9.77
2023-03-08T20:20:28.916Z,10.70
2023-03-08T20:22:55.386Z,12.13
2023-03-08T20:25:21.882Z,9.63
2023-03-08T20:27:48.411Z,11.73
2023-03-08T20:30:15.436Z,13.20
2023-03-08T20:32:42.144Z,10.38
2023-03-08T20:35:12.369Z,10.30
2023-03-08T20:37:38.862Z,11.13
2023-03-08T20:40:06.731Z,10.30
2023-03-08T20:42:37.677Z,10.27
2023-03-08T20:45:07.583Z,9.48
2023-03-08T20:47:34.099Z,10.57
2023-03-08T20:50:00.620Z,9.88
2023-03-08T20:52:27.094Z,9.10
2023-03-08T20:54:53.624Z,10.93
2023-03-08T20:57:20.160Z,9.60
2023-03-08T20:59:46.645Z,11.40
2023-03-08T21:02:13.563Z,10.02
2023-03-08T21:04:40.163Z,11.77
2023-03-08T21:07:07.025Z,10.52
2023-03-08T21:09:35.322Z,12.88
2023-03-08T21:12:02.099Z,13.32
2023-03-08T21:14:29.135Z,11.95
2023-03-08T21:16:55.624Z,12.52
2023-03-08T21:19:23.955Z,14.07
2023-03-08T21:21:51.430Z,14.88
2023-03-08T21:24:21.264Z,14.48
2023-03-08T21:26:47.950Z,14.65
2023-03-08T21:29:17.254Z,15.07
2023-03-08T21:31:48.444Z,16.80
2023-03-08T21:34:16.128Z,15.82
2023-03-08T21:36:45.178Z,18.55
2023-03-08T21:39:12.641Z,19.35
2023-03-08T21:41:43.252Z,17.23
2023-03-08T21:44:14.110Z,18.50
2023-03-08T21:46:41.352Z,17.33
2023-03-08T21:49:14.365Z,19.13
2023-03-08T21:51:40.785Z,18.50
2023-03-08T21:54:07.328Z,20.67
2023-03-08T21:56:35.797Z,18.67
2023-03-08T21:59:04.040Z,21.00
2023-03-08T22:01:31.616Z,19.17
2023-03-08T22:03:59.869Z,15.70
2023-03-08T22:06:27.234Z,16.75
2023-03-08T22:08:54.425Z,16.75
2023-03-08T22:11:23.628Z,15.18
2023-03-08T22:13:51.919Z,15.82
2023-03-08T22:16:19.457Z,17.88
2023-03-08T22:18:56.186Z,15.80
2023-03-08T22:21:25.726Z,16.92
2023-03-08T22:23:54.089Z,15.90
2023-03-08T22:26:22.652Z,15.75
2023-03-08T22:28:49.568Z,16.20
2023-03-08T22:31:20.223Z,16.25
2023-03-08T22:33:48.627Z,20.02
2023-03-08T22:36:19.764Z,18.75
2023-03-08T22:38:46.877Z,18.40
2023-03-08T22:41:19.777Z,16.20
2023-03-08T22:43:46.867Z,19.60
2023-03-08T22:46:22.486Z,18.83
2023-03-08T22:48:51.055Z,18.33
2023-03-08T22:51:19.594Z,21.05
2023-03-08T22:53:46.242Z,20.48
2023-03-08T22:56:19.730Z,21.77
2023-03-08T22:58:46.623Z,23.80
2023-03-08T23:01:19.395Z,21.02
2023-03-08T23:03:46.498Z,23.10
2023-03-08T23:06:12.927Z,24.02
2023-03-08T23:08:39.498Z,22.52
2023-03-08T23:11:06.779Z,21.30
2023-03-08T23:13:34.861Z,24.92
2023-03-08T23:16:09.979Z,24.90
2023-03-08T23:18:38.688Z,24.85
2023-03-08T23:21:08.052Z,24.98
2023-03-08T23:23:34.534Z,23.35
2023-03-08T23:26:04.308Z,24.90
2023-03-08T23:28:35.354Z,25.52
2023-03-08T23:31:13.336Z,25.30
2023-03-08T23:33:40.544Z,25.70
2023-03-08T23:36:07.848Z,22.90
2023-03-08T23:38:34.366Z,25.50
2023-03-08T23:41:07.358Z,23.42
2023-03-08T23:43:35.168Z,22.77
2023-03-08T23:46:13.546Z,21.00
2023-03-08T23:48:40.485Z,20.70
2023-03-08T23:51:13.152Z,20.55
2023-03-08T23:53:39.622Z,18.93
2023-03-08T23:56:07.002Z,18.90
2023-03-08T23:58:34.388Z,18.63
